createdAt,value
2018-08-27T00:01:54.154Z,101668.51
2018-08-27T00:04:57.375Z,101668.42
2018-08-27T00:08:00.540Z,101668.07
2018-08-27T00:11:03.836Z,101669.07
2018-08-27T00:14:07.188Z,101679.35
2018-08-27T00:17:10.339Z,101673.40
2018-08-27T00:20:13.680Z,101666.21
2018-08-27T00:23:16.922Z,101665.11
2018-08-27T00:26:21.200Z,101661.58
2018-08-27T00:29:24.456Z,101651.58
2018-08-27T00:32:28.755Z,101651.20
2018-08-27T00:35:35.545Z,101651.41
2018-08-27T00:38:38.877Z,101655.52
2018-08-27T00:41:42.141Z,101652.20
2018-08-27T00:44:45.447Z,101648.94
2018-08-27T00:47:48.792Z,101651.89
2018-08-27T00:50:53.037Z,101650.72
2018-08-27T00:53:56.408Z,101649.63
2018-08-27T00:56:59.656Z,101650.37
2018-08-27T01:00:03.100Z,101645.14
2018-08-27T01:03:06.831Z,101642.42
2018-08-27T01:06:10.042Z,101650.28
2018-08-27T01:09:13.269Z,101648.17
2018-08-27T01:12:16.584Z,101650.88
2018-08-27T01:15:19.883Z,101649.42
2018-08-27T01:18:23.956Z,101645.92
2018-08-27T01:21:27.261Z,101640.07
2018-08-27T01:24:31.515Z,101631.38
2018-08-27T01:27:34.783Z,101638.41
2018-08-27T01:30:38.083Z,101635.03
2018-08-27T01:33:41.743Z,101627.64
2018-08-27T01:36:46.270Z,101632.39
2018-08-27T01:39:49.654Z,101632.57
2018-08-27T01:42:53.257Z,101619.19
2018-08-27T01:45:56.524Z,101618.27
2018-08-27T01:48:59.834Z,101608.53
2018-08-27T01:52:05.383Z,101604.54
2018-08-27T01:55:08.661Z,101613.49
2018-08-27T01:58:11.798Z,101613.63
2018-08-27T02:01:15.290Z,101613.77
2018-08-27T02:04:18.550Z,101615.20
2018-08-27T02:07:23.950Z,101613.52
2018-08-27T02:10:29.313Z,101612.17
2018-08-27T02:13:32.579Z,101610.71
2018-08-27T02:16:35.835Z,101614.15
2018-08-27T02:19:39.183Z,101609.93
2018-08-27T02:22:42.507Z,101609.16
2018-08-27T02:25:45.762Z,101609.23
2018-08-27T02:28:49.165Z,101608.22
2018-08-27T02:31:52.565Z,101607.53
2018-08-27T02:34:55.897Z,101611.75
2018-08-27T02:37:59.190Z,101601.91
2018-08-27T02:41:02.757Z,101604.11
2018-08-27T02:44:06.045Z,101601.50
2018-08-27T02:47:09.318Z,101600.18
2018-08-27T02:50:12.638Z,101602.05
2018-08-27T02:53:15.807Z,101600.75
2018-08-27T02:56:19.140Z,101608.58
2018-08-27T02:59:23.273Z,101603.45
2018-08-27T03:02:26.616Z,101602.78
2018-08-27T03:05:29.834Z,101603.79
2018-08-27T03:08:33.007Z,101599.67
2018-08-27T03:11:36.307Z,101598.24
2018-08-27T03:14:39.527Z,101600.48
2018-08-27T03:17:42.803Z,101593.18
2018-08-27T03:20:46.001Z,101594.20
2018-08-27T03:23:49.370Z,101591.85
2018-08-27T03:26:53.643Z,101589.58
2018-08-27T03:29:56.925Z,101592.73
2018-08-27T03:33:00.254Z,101592.09
2018-08-27T03:36:03.558Z,101594.63
2018-08-27T03:39:10.136Z,101591.09
2018-08-27T03:42:13.388Z,101585.27
2018-08-27T03:45:16.687Z,101583.41
2018-08-27T03:48:19.994Z,101585.07
2018-08-27T03:51:23.314Z,101581.20
2018-08-27T03:54:26.702Z,101577.74
2018-08-27T03:57:30.018Z,101586.34
2018-08-27T04:00:33.267Z,101584.18
2018-08-27T04:03:36.599Z,101579.96
2018-08-27T04:06:39.735Z,101580.95
2018-08-27T04:09:43.091Z,101582.07
2018-08-27T04:12:46.378Z,101588.47
2018-08-27T04:15:49.584Z,101585.84
2018-08-27T04:18:53.919Z,101592.69
2018-08-27T04:21:57.173Z,101595.86
2018-08-27T04:25:00.412Z,101600.45
2018-08-27T04:28:03.667Z,101597.31
2018-08-27T04:31:07.497Z,101598.81
2018-08-27T04:34:10.742Z,101601.78
2018-08-27T04:37:14.324Z,101594.49
2018-08-27T04:40:17.565Z,101598.12
2018-08-27T04:43:21.481Z,101601.13
2018-08-27T04:46:24.830Z,101594.71
2018-08-27T04:49:28.152Z,101597.56
2018-08-27T04:52:31.423Z,101596.01
2018-08-27T04:55:34.734Z,101598.93
2018-08-27T04:58:43.254Z,101600.17
2018-08-27T05:01:46.575Z,101598.45
2018-08-27T05:04:50.788Z,101601.12
2018-08-27T05:07:54.868Z,101606.35
2018-08-27T05:10:58.169Z,101605.87
2018-08-27T05:14:01.519Z,101609.81
2018-08-27T05:17:07.987Z,101612.46
2018-08-27T05:20:11.444Z,101611.37
2018-08-27T05:23:14.784Z,101610.92
2018-08-27T05:26:19.094Z,101616.68
2018-08-27T05:29:22.932Z,101619.63
2018-08-27T05:32:26.365Z,101620.46
2018-08-27T05:35:29.652Z,101615.30
2018-08-27T05:38:33.268Z,101612.98
2018-08-27T05:41:36.488Z,101621.99
2018-08-27T05:44:40.791Z,101629.46
2018-08-27T05:47:44.149Z,101636.99
2018-08-27T05:50:47.553Z,101651.29
2018-08-27T05:53:50.857Z,101646.71
2018-08-27T05:56:54.084Z,101642.83
2018-08-27T05:59:57.341Z,101645.99
2018-08-27T06:03:00.722Z,101644.79
2018-08-27T06:06:04.030Z,101633.21
2018-08-27T06:09:08.568Z,101638.25
2018-08-27T06:12:11.767Z,101646.40
2018-08-27T06:15:15.164Z,101648.78
2018-08-27T06:18:18.479Z,101650.43
2018-08-27T06:21:22.215Z,101649.72
2018-08-27T06:24:25.506Z,101634.57
2018-08-27T06:27:28.652Z,101645.31
2018-08-27T06:30:33.034Z,101654.33
2018-08-27T06:33:36.339Z,101660.64
2018-08-27T06:36:41.720Z,101662.92
2018-08-27T06:39:47.146Z,101660.52
2018-08-27T06:42:50.437Z,101664.95
2018-08-27T06:45:54.533Z,101674.66
2018-08-27T06:48:57.805Z,101680.77
2018-08-27T06:52:01.132Z,101679.99
2018-08-27T06:55:04.924Z,101690.11
2018-08-27T06:58:08.184Z,101691.68
2018-08-27T07:01:11.536Z,101697.56
2018-08-27T07:04:15.774Z,101685.09
2018-08-27T07:07:19.160Z,101696.24
2018-08-27T07:10:22.756Z,101704.09
2018-08-27T07:13:25.988Z,101699.16
2018-08-27T07:16:29.331Z,101683.99
2018-08-27T07:19:32.629Z,101681.05
2018-08-27T07:22:36.048Z,101681.35
2018-08-27T07:25:39.253Z,101676.21
2018-08-27T07:28:43.773Z,101674.27
2018-08-27T07:31:46.961Z,101667.29
2018-08-27T07:34:50.274Z,101672.82
2018-08-27T07:37:53.563Z,101665.71
2018-08-27T07:40:57.898Z,101666.98
2018-08-27T07:44:03.232Z,101668.20
2018-08-27T07:47:06.565Z,101656.65
2018-08-27T07:50:09.883Z,101650.32
2018-08-27T07:53:13.743Z,101651.39
2018-08-27T07:56:17.011Z,101650.04
2018-08-27T07:59:22.178Z,101655.09
2018-08-27T08:02:25.570Z,101654.62
2018-08-27T08:05:29.265Z,101649.60
2018-08-27T08:08:32.541Z,101649.11
2018-08-27T08:11:36.098Z,101659.15
2018-08-27T08:14:39.398Z,101659.04
2018-08-27T08:17:42.735Z,101661.93
2018-08-27T08:20:47.837Z,101663.70
2018-08-27T08:23:51.109Z,101667.34
2018-08-27T08:26:54.388Z,101675.80
2018-08-27T08:29:57.713Z,101680.26
2018-08-27T08:33:02.692Z,101684.83
2018-08-27T08:36:06.004Z,101692.39
2018-08-27T08:39:09.349Z,101684.75
2018-08-27T08:42:12.592Z,101682.62
2018-08-27T08:45:16.858Z,101686.21
2018-08-27T08:48:21.179Z,101687.00
2018-08-27T08:51:24.537Z,101680.05
2018-08-27T08:54:27.741Z,101675.73
2018-08-27T08:57:30.967Z,101684.84
2018-08-27T09:00:34.252Z,101687.01
2018-08-27T09:03:37.594Z,101685.20
2018-08-27T09:06:40.927Z,101680.56
2018-08-27T09:09:45.188Z,101681.43
2018-08-27T09:12:48.624Z,101690.75
2018-08-27T09:15:52.195Z,101693.71
2018-08-27T09:18:55.481Z,101696.19
2018-08-27T09:21:58.666Z,101696.75
2018-08-27T09:25:01.982Z,101708.59
2018-08-27T09:28:05.281Z,101701.29
2018-08-27T09:31:08.610Z,101697.57
2018-08-27T09:34:11.982Z,101700.53
2018-08-27T09:37:15.266Z,101704.00
2018-08-27T09:40:18.512Z,101710.50
2018-08-27T09:43:21.812Z,101705.81
2018-08-27T09:46:25.058Z,101710.55
2018-08-27T09:49:28.347Z,101709.22
2018-08-27T09:52:31.620Z,101713.61
2018-08-27T09:55:34.878Z,101714.85
2018-08-27T09:58:38.092Z,101718.21
2018-08-27T10:01:45.460Z,101719.19
2018-08-27T10:04:48.816Z,101714.56
2018-08-27T10:07:52.172Z,101714.29
2018-08-27T10:10:55.384Z,101719.10
2018-08-27T10:13:58.580Z,101717.31
2018-08-27T10:17:01.900Z,101723.12
2018-08-27T10:20:06.139Z,101724.37
2018-08-27T10:23:09.404Z,101715.83
2018-08-27T10:26:12.771Z,101713.43
2018-08-27T10:29:16.908Z,101713.69
2018-08-27T10:32:20.115Z,101710.76
2018-08-27T10:35:29.071Z,101714.44
2018-08-27T10:38:32.376Z,101710.26
2018-08-27T10:41:35.919Z,101709.99
2018-08-27T10:44:39.371Z,101715.83
2018-08-27T10:47:42.669Z,101709.88
2018-08-27T10:50:47.425Z,101714.82
2018-08-27T10:53:50.674Z,101712.70
2018-08-27T10:56:53.967Z,101704.67
2018-08-27T10:59:57.622Z,101708.75
2018-08-27T11:03:00.861Z,101709.05
2018-08-27T11:06:05.076Z,101708.43
2018-08-27T11:09:09.335Z,101714.52
2018-08-27T11:12:12.594Z,101709.13
2018-08-27T11:15:16.462Z,101710.41
2018-08-27T11:18:19.711Z,101711.33
2018-08-27T11:21:23.038Z,101716.90
2018-08-27T11:24:26.190Z,101726.87
2018-08-27T11:27:29.419Z,101729.44
2018-08-27T11:30:32.714Z,101728.61
2018-08-27T11:33:35.989Z,101736.79
2018-08-27T11:36:39.214Z,101741.14
2018-08-27T11:39:42.564Z,101734.14
2018-08-27T11:42:47.017Z,101732.15
2018-08-27T11:45:51.136Z,101729.27
2018-08-27T11:48:54.420Z,101726.59
2018-08-27T11:51:57.767Z,101726.87
2018-08-27T11:55:01.561Z,101730.05
2018-08-27T11:58:04.734Z,101732.38
2018-08-27T12:01:08.552Z,101732.38
2018-08-27T12:04:11.782Z,101726.41
2018-08-27T12:07:15.690Z,101729.50
2018-08-27T12:10:18.963Z,101725.62
2018-08-27T12:13:22.153Z,101720.59
2018-08-27T12:16:25.485Z,101722.10
2018-08-27T12:19:28.778Z,101714.89
2018-08-27T12:22:32.097Z,101706.75
2018-08-27T12:25:35.279Z,101703.34
2018-08-27T12:28:38.624Z,101700.33
2018-08-27T12:31:42.077Z,101695.55
2018-08-27T12:34:45.393Z,101690.52
2018-08-27T12:37:48.842Z,101688.16
2018-08-27T12:40:52.091Z,101682.42
2018-08-27T12:43:55.366Z,101686.14
2018-08-27T12:46:58.819Z,101679.60
2018-08-27T12:50:02.175Z,101680.20
2018-08-27T12:53:05.692Z,101679.21
2018-08-27T12:56:10.071Z,101688.24
2018-08-27T12:59:13.398Z,101687.75
2018-08-27T13:02:17.353Z,101689.96
2018-08-27T13:05:20.806Z,101694.83
2018-08-27T13:08:24.121Z,101686.57
2018-08-27T13:11:27.537Z,101693.98
2018-08-27T13:14:31.008Z,101704.16
2018-08-27T13:17:34.329Z,101700.38
2018-08-27T13:20:37.605Z,101703.75
2018-08-27T13:23:40.879Z,101709.21
2018-08-27T13:26:44.264Z,101706.41
2018-08-27T13:29:47.608Z,101703.42
2018-08-27T13:32:50.909Z,101700.27
2018-08-27T13:35:54.062Z,101706.38
2018-08-27T13:38:57.294Z,101710.70
2018-08-27T13:42:00.482Z,101707.80
2018-08-27T13:45:03.896Z,101702.36
2018-08-27T13:48:07.309Z,101705.53
2018-08-27T13:51:10.587Z,101703.41
2018-08-27T13:54:13.758Z,101699.17
2018-08-27T13:57:17.080Z,101692.48
2018-08-27T14:00:21.357Z,101686.17
2018-08-27T14:03:24.673Z,101687.37
2018-08-27T14:06:28.009Z,101688.46
2018-08-27T14:09:31.231Z,101696.26
2018-08-27T14:12:34.499Z,101692.27
2018-08-27T14:15:37.846Z,101700.60
2018-08-27T14:18:41.059Z,101699.55
2018-08-27T14:21:44.495Z,101696.60
2018-08-27T14:24:48.121Z,101697.52
2018-08-27T14:27:51.267Z,101694.80
2018-08-27T14:30:54.464Z,101702.20
2018-08-27T14:33:57.977Z,101706.21
2018-08-27T14:37:01.235Z,101714.96
2018-08-27T14:40:04.669Z,101715.56
2018-08-27T14:43:08.947Z,101713.54
2018-08-27T14:46:12.612Z,101715.63
2018-08-27T14:49:16.359Z,101719.82
2018-08-27T14:52:19.535Z,101712.18
2018-08-27T14:55:22.989Z,101711.92
2018-08-27T14:58:26.327Z,101712.35
2018-08-27T15:01:29.601Z,101715.91
2018-08-27T15:04:32.981Z,101709.14
2018-08-27T15:07:37.275Z,101708.37
2018-08-27T15:10:40.504Z,101709.65
2018-08-27T15:13:43.808Z,101709.45
2018-08-27T15:16:48.599Z,101711.49
2018-08-27T15:19:51.947Z,101718.24
2018-08-27T15:22:55.230Z,101722.01
2018-08-27T15:25:58.495Z,101729.89
2018-08-27T15:29:02.036Z,101733.84
2018-08-27T15:32:05.253Z,101730.65
2018-08-27T15:35:08.583Z,101735.50
2018-08-27T15:38:11.909Z,101735.24
2018-08-27T15:41:16.567Z,101734.62
2018-08-27T15:44:19.824Z,101735.79
2018-08-27T15:47:23.161Z,101739.65
2018-08-27T15:50:26.510Z,101734.99
2018-08-27T15:53:29.880Z,101737.07
2018-08-27T15:56:33.158Z,101737.43
2018-08-27T15:59:36.402Z,101732.51
2018-08-27T16:02:39.768Z,101736.86
2018-08-27T16:05:43.083Z,101740.42
2018-08-27T16:08:46.453Z,101742.18
2018-08-27T16:11:49.746Z,101740.03
2018-08-27T16:14:53.062Z,101734.23
2018-08-27T16:17:56.362Z,101738.23
2018-08-27T16:20:59.609Z,101741.15
2018-08-27T16:24:02.794Z,101741.16
2018-08-27T16:27:06.103Z,101743.62
2018-08-27T16:30:10.972Z,101745.30
2018-08-27T16:33:14.258Z,101745.73
2018-08-27T16:36:18.478Z,101740.21
2018-08-27T16:39:21.762Z,101740.84
2018-08-27T16:42:25.997Z,101740.61
2018-08-27T16:45:29.493Z,101739.84
2018-08-27T16:48:32.651Z,101738.27
2018-08-27T16:51:36.706Z,101742.04
2018-08-27T16:54:40.067Z,101745.93
2018-08-27T16:57:43.271Z,101739.09
2018-08-27T17:00:47.419Z,101745.07
2018-08-27T17:03:51.074Z,101750.38
2018-08-27T17:06:54.371Z,101754.10
2018-08-27T17:09:57.730Z,101748.53
2018-08-27T17:13:00.871Z,101756.85
2018-08-27T17:16:04.195Z,101770.26
2018-08-27T17:19:07.490Z,101772.55
2018-08-27T17:22:10.774Z,101777.43
2018-08-27T17:25:13.971Z,101782.78
2018-08-27T17:28:17.199Z,101783.86
2018-08-27T17:31:20.505Z,101785.16
2018-08-27T17:34:25.404Z,101784.82
2018-08-27T17:37:28.697Z,101788.58
2018-08-27T17:40:35.616Z,101783.10
2018-08-27T17:43:39.007Z,101785.50
2018-08-27T17:46:42.243Z,101798.23
2018-08-27T17:49:46.425Z,101807.06
2018-08-27T17:52:49.725Z,101810.75
2018-08-27T17:55:52.999Z,101806.23
2018-08-27T17:58:56.910Z,101810.80
2018-08-27T18:02:00.467Z,101817.33
2018-08-27T18:05:05.370Z,101818.71
2018-08-27T18:08:08.488Z,101823.09
2018-08-27T18:11:11.905Z,101824.47
2018-08-27T18:14:15.108Z,101828.78
2018-08-27T18:17:18.460Z,101824.37
2018-08-27T18:20:21.725Z,101826.27
2018-08-27T18:23:25.035Z,101828.50
2018-08-27T18:26:28.375Z,101834.52
2018-08-27T18:29:31.753Z,101844.03
2018-08-27T18:32:35.023Z,101842.59
2018-08-27T18:35:38.292Z,101839.15
2018-08-27T18:38:41.692Z,101849.33
2018-08-27T18:41:45.007Z,101850.15
2018-08-27T18:44:49.308Z,101851.82
2018-08-27T18:47:52.963Z,101855.03
2018-08-27T18:50:56.208Z,101856.67
2018-08-27T18:53:59.523Z,101860.91
2018-08-27T18:57:02.839Z,101857.99
2018-08-27T19:00:06.182Z,101856.88
2018-08-27T19:03:09.399Z,101863.18
2018-08-27T19:06:12.730Z,101870.21
2018-08-27T19:09:15.999Z,101872.15
2018-08-27T19:12:19.367Z,101869.83
2018-08-27T19:15:22.946Z,101875.69
2018-08-27T19:18:26.193Z,101882.00
2018-08-27T19:21:29.462Z,101881.03
2018-08-27T19:24:32.735Z,101887.24
2018-08-27T19:27:35.894Z,101891.25
2018-08-27T19:30:39.211Z,101897.23
2018-08-27T19:33:42.503Z,101895.67
2018-08-27T19:36:45.804Z,101897.62
2018-08-27T19:39:50.196Z,101898.05
2018-08-27T19:42:53.836Z,101896.40
2018-08-27T19:45:58.147Z,101896.94
2018-08-27T19:49:01.316Z,101901.36
2018-08-27T19:52:04.640Z,101898.92
2018-08-27T19:55:07.935Z,101898.10
2018-08-27T19:58:11.263Z,101900.05
2018-08-27T20:01:14.594Z,101905.48
2018-08-27T20:04:17.961Z,101907.61
2018-08-27T20:07:21.194Z,101910.32
2018-08-27T20:10:25.715Z,101904.94
2018-08-27T20:13:29.082Z,101914.49
2018-08-27T20:16:32.444Z,101910.66
2018-08-27T20:19:35.704Z,101907.94
2018-08-27T20:22:39.051Z,101906.31
2018-08-27T20:25:42.513Z,101907.03
2018-08-27T20:28:45.877Z,101905.58
2018-08-27T20:31:49.165Z,101918.41
2018-08-27T20:34:52.980Z,101912.93
2018-08-27T20:37:56.253Z,101916.47
2018-08-27T20:40:59.416Z,101921.70
2018-08-27T20:44:02.763Z,101921.88
2018-08-27T20:47:06.165Z,101926.82
2018-08-27T20:50:09.427Z,101936.45
2018-08-27T20:53:12.639Z,101953.66
2018-08-27T20:56:16.391Z,101954.35
2018-08-27T20:59:19.652Z,101957.51
2018-08-27T21:02:22.906Z,101963.67
2018-08-27T21:05:26.240Z,101966.34
2018-08-27T21:08:29.507Z,101972.36
2018-08-27T21:11:32.916Z,101970.72
2018-08-27T21:14:41.544Z,101969.20
2018-08-27T21:17:46.928Z,101971.58
2018-08-27T21:20:50.295Z,101965.35
2018-08-27T21:23:53.908Z,101980.69
2018-08-27T21:26:57.175Z,101977.88
2018-08-27T21:30:00.319Z,101979.69
2018-08-27T21:33:03.532Z,101985.19
2018-08-27T21:36:06.935Z,101986.37
2018-08-27T21:39:10.224Z,101985.90
2018-08-27T21:42:14.517Z,101992.37
2018-08-27T21:45:17.797Z,101996.09
2018-08-27T21:48:21.075Z,101995.59
2018-08-27T21:51:25.325Z,101997.97
2018-08-27T21:54:28.690Z,102000.61
2018-08-27T21:57:34.013Z,102005.52
2018-08-27T22:00:43.070Z,102007.81
2018-08-27T22:03:51.815Z,102006.25
2018-08-27T22:06:56.495Z,102002.04
2018-08-27T22:10:00.347Z,102003.29
2018-08-27T22:13:04.766Z,102001.96
2018-08-27T22:16:08.061Z,102001.02
2018-08-27T22:19:11.257Z,102002.04
2018-08-27T22:22:14.668Z,102006.00
2018-08-27T22:25:17.884Z,102006.56
2018-08-27T22:28:21.166Z,102000.11
2018-08-27T22:31:25.439Z,102000.23
2018-08-27T22:34:28.729Z,102001.90
2018-08-27T22:37:32.303Z,102016.27
2018-08-27T22:40:35.835Z,102018.05
2018-08-27T22:43:41.230Z,102022.80
2018-08-27T22:46:44.677Z,102023.86
2018-08-27T22:49:47.972Z,102025.46
2018-08-27T22:52:51.544Z,102029.54
2018-08-27T22:55:55.715Z,102032.23
2018-08-27T22:58:59.895Z,102036.28
2018-08-27T23:02:03.523Z,102037.80
2018-08-27T23:05:08.431Z,102040.32
2018-08-27T23:08:12.291Z,102038.96
2018-08-27T23:11:16.118Z,102043.89
2018-08-27T23:14:19.353Z,102041.66
2018-08-27T23:17:23.794Z,102047.10
2018-08-27T23:20:27.415Z,102051.47
2018-08-27T23:23:30.727Z,102050.71
2018-08-27T23:26:34.982Z,102049.80
2018-08-27T23:29:38.445Z,102046.75
2018-08-27T23:32:41.775Z,102056.53
2018-08-27T23:35:45.063Z,102066.05
2018-08-27T23:38:48.355Z,102076.52
2018-08-27T23:41:51.539Z,102077.82
2018-08-27T23:44:55.843Z,102077.60
2018-08-27T23:47:59.090Z,102078.35
2018-08-27T23:51:02.419Z,102079.11
2018-08-27T23:54:05.768Z,102076.01
2018-08-27T23:57:09.091Z,102063.53
